sensor_id;sensor_type;location;lat;lon;timestamp;P1;durP1;ratioP1;P2;durP2;ratioP2
8297;SDS011;4187;42.778;23.242;2023-02-28T00:00:25;17.07;;;12.23;;
8297;SDS011;4187;42.778;23.242;2023-02-28T00:02:52;14.73;;;11.17;;
8297;SDS011;4187;42.778;23.242;2023-02-28T00:05:19;13.33;;;11.07;;
8297;SDS011;4187;42.778;23.242;2023-02-28T00:07:47;18.60;;;11.97;;
8297;SDS011;4187;42.778;23.242;2023-02-28T00:10:16;18.97;;;12.27;;
8297;SDS011;4187;42.778;23.242;2023-02-28T00:12:45;18.17;;;13.50;;
8297;SDS011;4187;42.778;23.242;2023-02-28T00:15:14;17.00;;;12.83;;
8297;SDS011;4187;42.778;23.242;2023-02-28T00:17:41;18.23;;;13.80;;
8297;SDS011;4187;42.778;23.242;2023-02-28T00:20:08;18.67;;;14.03;;
8297;SDS011;4187;42.778;23.242;2023-02-28T00:22:37;18.40;;;13.53;;
8297;SDS011;4187;42.778;23.242;2023-02-28T00:25:06;17.70;;;13.03;;
8297;SDS011;4187;42.778;23.242;2023-02-28T00:27:34;15.97;;;12.17;;
8297;SDS011;4187;42.778;23.242;2023-02-28T00:30:02;19.37;;;12.67;;
8297;SDS011;4187;42.778;23.242;2023-02-28T00:32:31;16.70;;;12.37;;
8297;SDS011;4187;42.778;23.242;2023-02-28T00:34:59;16.87;;;12.03;;
8297;SDS011;4187;42.778;23.242;2023-02-28T00:37:26;14.37;;;12.00;;
8297;SDS011;4187;42.778;23.242;2023-02-28T00:39:53;15.40;;;12.00;;
8297;SDS011;4187;42.778;23.242;2023-02-28T00:42:20;21.07;;;11.87;;
8297;SDS011;4187;42.778;23.242;2023-02-28T00:44:47;20.33;;;14.07;;
8297;SDS011;4187;42.778;23.242;2023-02-28T00:47:13;20.70;;;15.13;;
8297;SDS011;4187;42.778;23.242;2023-02-28T00:49:42;17.90;;;13.90;;
8297;SDS011;4187;42.778;23.242;2023-02-28T00:52:09;17.37;;;13.63;;
8297;SDS011;4187;42.778;23.242;2023-02-28T00:54:36;18.87;;;12.83;;
8297;SDS011;4187;42.778;23.242;2023-02-28T00:57:03;17.47;;;14.07;;
8297;SDS011;4187;42.778;23.242;2023-02-28T00:59:30;18.03;;;13.50;;
8297;SDS011;4187;42.778;23.242;2023-02-28T01:01:57;15.33;;;12.40;;
8297;SDS011;4187;42.778;23.242;2023-02-28T01:04:24;15.80;;;12.77;;
8297;SDS011;4187;42.778;23.242;2023-02-28T01:06:52;15.90;;;12.40;;
8297;SDS011;4187;42.778;23.242;2023-02-28T01:09:19;18.90;;;12.53;;
8297;SDS011;4187;42.778;23.242;2023-02-28T01:11:46;17.63;;;13.10;;
8297;SDS011;4187;42.778;23.242;2023-02-28T01:14:13;17.03;;;13.07;;
8297;SDS011;4187;42.778;23.242;2023-02-28T01:16:41;16.60;;;13.40;;
8297;SDS011;4187;42.778;23.242;2023-02-28T01:19:09;18.43;;;13.40;;
8297;SDS011;4187;42.778;23.242;2023-02-28T01:21:36;16.97;;;14.17;;
8297;SDS011;4187;42.778;23.242;2023-02-28T01:24:04;17.73;;;13.57;;
8297;SDS011;4187;42.778;23.242;2023-02-28T01:26:32;19.60;;;13.57;;
8297;SDS011;4187;42.778;23.242;2023-02-28T01:28:59;15.70;;;12.27;;
8297;SDS011;4187;42.778;23.242;2023-02-28T01:31:26;17.00;;;12.03;;
8297;SDS011;4187;42.778;23.242;2023-02-28T01:33:53;18.10;;;12.87;;
8297;SDS011;4187;42.778;23.242;2023-02-28T01:36:20;15.00;;;11.67;;
8297;SDS011;4187;42.778;23.242;2023-02-28T01:38:49;17.83;;;12.80;;
8297;SDS011;4187;42.778;23.242;2023-02-28T01:41:19;15.47;;;11.70;;
8297;SDS011;4187;42.778;23.242;2023-02-28T01:43:54;15.73;;;12.37;;
8297;SDS011;4187;42.778;23.242;2023-02-28T01:46:28;15.70;;;12.10;;
8297;SDS011;4187;42.778;23.242;2023-02-28T01:48:57;18.03;;;11.80;;
8297;SDS011;4187;42.778;23.242;2023-02-28T01:51:29;16.43;;;12.03;;
8297;SDS011;4187;42.778;23.242;2023-02-28T01:54:01;20.43;;;14.73;;
8297;SDS011;4187;42.778;23.242;2023-02-28T01:56:33;28.33;;;20.07;;
8297;SDS011;4187;42.778;23.242;2023-02-28T01:59:02;24.47;;;19.13;;
8297;SDS011;4187;42.778;23.242;2023-02-28T02:01:30;17.50;;;11.93;;
8297;SDS011;4187;42.778;23.242;2023-02-28T02:03:58;16.10;;;12.87;;
8297;SDS011;4187;42.778;23.242;2023-02-28T02:06:28;15.90;;;12.10;;
8297;SDS011;4187;42.778;23.242;2023-02-28T02:09:00;24.50;;;18.30;;
8297;SDS011;4187;42.778;23.242;2023-02-28T02:11:28;18.70;;;14.70;;
8297;SDS011;4187;42.778;23.242;2023-02-28T02:14:03;32.77;;;23.03;;
8297;SDS011;4187;42.778;23.242;2023-02-28T02:16:56;17.27;;;12.60;;
8297;SDS011;4187;42.778;23.242;2023-02-28T02:19:42;14.70;;;12.00;;
8297;SDS011;4187;42.778;23.242;2023-02-28T02:22:30;17.03;;;11.50;;
8297;SDS011;4187;42.778;23.242;2023-02-28T02:25:19;14.87;;;11.37;;
8297;SDS011;4187;42.778;23.242;2023-02-28T02:27:59;17.77;;;12.13;;
8297;SDS011;4187;42.778;23.242;2023-02-28T02:30:48;17.60;;;11.87;;
8297;SDS011;4187;42.778;23.242;2023-02-28T02:33:32;15.50;;;11.37;;
8297;SDS011;4187;42.778;23.242;2023-02-28T02:36:19;15.47;;;10.90;;
8297;SDS011;4187;42.778;23.242;2023-02-28T02:38:50;15.93;;;10.93;;
8297;SDS011;4187;42.778;23.242;2023-02-28T02:41:24;14.57;;;10.97;;
8297;SDS011;4187;42.778;23.242;2023-02-28T02:44:01;12.60;;;9.57;;
8297;SDS011;4187;42.778;23.242;2023-02-28T02:46:32;12.33;;;10.10;;
8297;SDS011;4187;42.778;23.242;2023-02-28T02:49:02;12.67;;;10.23;;
8297;SDS011;4187;42.778;23.242;2023-02-28T02:51:33;12.73;;;9.80;;
8297;SDS011;4187;42.778;23.242;2023-02-28T02:54:04;13.03;;;10.40;;
8297;SDS011;4187;42.778;23.242;2023-02-28T02:56:34;14.33;;;9.83;;
8297;SDS011;4187;42.778;23.242;2023-02-28T02:59:06;11.27;;;8.83;;
8297;SDS011;4187;42.778;23.242;2023-02-28T03:01:38;13.97;;;9.53;;
8297;SDS011;4187;42.778;23.242;2023-02-28T03:04:09;10.60;;;8.50;;
8297;SDS011;4187;42.778;23.242;2023-02-28T03:06:40;10.73;;;9.30;;
8297;SDS011;4187;42.778;23.242;2023-02-28T03:09:07;11.83;;;9.53;;
8297;SDS011;4187;42.778;23.242;2023-02-28T03:11:34;12.30;;;9.87;;
8297;SDS011;4187;42.778;23.242;2023-02-28T03:14:11;12.63;;;8.67;;
8297;SDS011;4187;42.778;23.242;2023-02-28T03:16:57;11.47;;;9.37;;
8297;SDS011;4187;42.778;23.242;2023-02-28T03:19:45;13.67;;;9.83;;
8297;SDS011;4187;42.778;23.242;2023-02-28T03:22:27;13.53;;;11.07;;
8297;SDS011;4187;42.778;23.242;2023-02-28T03:25:04;11.63;;;9.90;;
8297;SDS011;4187;42.778;23.242;2023-02-28T03:27:36;11.43;;;9.07;;
8297;SDS011;4187;42.778;23.242;2023-02-28T03:30:10;13.33;;;10.33;;
8297;SDS011;4187;42.778;23.242;2023-02-28T03:32:42;11.87;;;9.33;;
8297;SDS011;4187;42.778;23.242;2023-02-28T03:35:18;12.37;;;10.13;;
8297;SDS011;4187;42.778;23.242;2023-02-28T03:37:52;14.57;;;10.47;;
8297;SDS011;4187;42.778;23.242;2023-02-28T03:40:24;12.97;;;9.57;;
8297;SDS011;4187;42.778;23.242;2023-02-28T03:42:56;12.43;;;9.93;;
8297;SDS011;4187;42.778;23.242;2023-02-28T03:45:28;13.13;;;10.53;;
8297;SDS011;4187;42.778;23.242;2023-02-28T03:48:00;13.10;;;10.17;;
8297;SDS011;4187;42.778;23.242;2023-02-28T03:50:33;14.40;;;12.07;;
8297;SDS011;4187;42.778;23.242;2023-02-28T03:53:06;30.17;;;23.17;;
8297;SDS011;4187;42.778;23.242;2023-02-28T03:55:39;29.93;;;24.97;;
8297;SDS011;4187;42.778;23.242;2023-02-28T03:58:11;17.10;;;13.17;;
8297;SDS011;4187;42.778;23.242;2023-02-28T04:00:43;22.00;;;17.27;;
8297;SDS011;4187;42.778;23.242;2023-02-28T04:03:13;25.37;;;19.27;;
8297;SDS011;4187;42.778;23.242;2023-02-28T04:05:47;22.57;;;16.10;;
8297;SDS011;4187;42.778;23.242;2023-02-28T04:08:19;18.00;;;14.67;;
8297;SDS011;4187;42.778;23.242;2023-02-28T04:10:48;23.30;;;20.07;;
8297;SDS011;4187;42.778;23.242;2023-02-28T04:13:20;21.60;;;17.77;;
8297;SDS011;4187;42.778;23.242;2023-02-28T04:15:47;23.13;;;18.83;;
8297;SDS011;4187;42.778;23.242;2023-02-28T04:18:14;25.00;;;19.90;;
8297;SDS011;4187;42.778;23.242;2023-02-28T04:20:41;25.33;;;20.60;;
8297;SDS011;4187;42.778;23.242;2023-02-28T04:23:07;26.43;;;21.90;;
8297;SDS011;4187;42.778;23.242;2023-02-28T04:25:36;33.80;;;25.07;;
8297;SDS011;4187;42.778;23.242;2023-02-28T04:28:05;82.43;;;54.00;;
8297;SDS011;4187;42.778;23.242;2023-02-28T04:30:32;74.83;;;46.77;;
8297;SDS011;4187;42.778;23.242;2023-02-28T04:33:00;56.23;;;34.50;;
8297;SDS011;4187;42.778;23.242;2023-02-28T04:35:27;40.90;;;28.07;;
8297;SDS011;4187;42.778;23.242;2023-02-28T04:37:54;35.27;;;22.30;;
8297;SDS011;4187;42.778;23.242;2023-02-28T04:40:20;34.47;;;20.77;;
8297;SDS011;4187;42.778;23.242;2023-02-28T04:42:49;25.17;;;16.70;;
8297;SDS011;4187;42.778;23.242;2023-02-28T04:45:15;26.00;;;17.57;;
8297;SDS011;4187;42.778;23.242;2023-02-28T04:47:42;24.70;;;18.73;;
8297;SDS011;4187;42.778;23.242;2023-02-28T04:50:10;24.73;;;16.60;;
8297;SDS011;4187;42.778;23.242;2023-02-28T04:52:37;19.43;;;13.27;;
8297;SDS011;4187;42.778;23.242;2023-02-28T04:55:04;18.53;;;14.10;;
8297;SDS011;4187;42.778;23.242;2023-02-28T04:57:31;21.77;;;16.97;;
8297;SDS011;4187;42.778;23.242;2023-02-28T05:00:00;19.13;;;14.60;;
8297;SDS011;4187;42.778;23.242;2023-02-28T05:02:29;18.07;;;13.53;;
8297;SDS011;4187;42.778;23.242;2023-02-28T05:04:56;26.17;;;19.00;;
8297;SDS011;4187;42.778;23.242;2023-02-28T05:07:23;23.87;;;18.17;;
8297;SDS011;4187;42.778;23.242;2023-02-28T05:09:50;28.63;;;20.70;;
8297;SDS011;4187;42.778;23.242;2023-02-28T05:12:17;29.30;;;20.83;;
8297;SDS011;4187;42.778;23.242;2023-02-28T05:14:43;21.73;;;16.97;;
8297;SDS011;4187;42.778;23.242;2023-02-28T05:17:12;35.37;;;25.17;;
8297;SDS011;4187;42.778;23.242;2023-02-28T05:19:39;26.17;;;19.03;;
8297;SDS011;4187;42.778;23.242;2023-02-28T05:22:11;45.30;;;31.67;;
8297;SDS011;4187;42.778;23.242;2023-02-28T05:24:39;42.20;;;36.37;;
8297;SDS011;4187;42.778;23.242;2023-02-28T05:27:07;35.97;;;26.97;;
8297;SDS011;4187;42.778;23.242;2023-02-28T05:29:34;34.13;;;26.73;;
8297;SDS011;4187;42.778;23.242;2023-02-28T05:32:08;30.80;;;23.20;;
8297;SDS011;4187;42.778;23.242;2023-02-28T05:34:38;29.40;;;21.30;;
8297;SDS011;4187;42.778;23.242;2023-02-28T05:37:05;28.57;;;20.87;;
8297;SDS011;4187;42.778;23.242;2023-02-28T05:39:33;29.73;;;20.40;;
8297;SDS011;4187;42.778;23.242;2023-02-28T05:41:59;37.10;;;27.00;;
8297;SDS011;4187;42.778;23.242;2023-02-28T05:44:26;29.73;;;22.40;;
8297;SDS011;4187;42.778;23.242;2023-02-28T05:46:53;27.87;;;20.27;;
8297;SDS011;4187;42.778;23.242;2023-02-28T05:49:20;30.53;;;23.20;;
8297;SDS011;4187;42.778;23.242;2023-02-28T05:51:48;28.73;;;20.73;;
8297;SDS011;4187;42.778;23.242;2023-02-28T05:54:15;55.23;;;38.93;;
8297;SDS011;4187;42.778;23.242;2023-02-28T05:56:41;75.23;;;45.57;;
8297;SDS011;4187;42.778;23.242;2023-02-28T05:59:10;73.50;;;41.77;;
8297;SDS011;4187;42.778;23.242;2023-02-28T06:01:38;70.50;;;43.07;;
8297;SDS011;4187;42.778;23.242;2023-02-28T06:04:07;65.20;;;42.97;;
8297;SDS011;4187;42.778;23.242;2023-02-28T06:06:35;59.70;;;39.23;;
8297;SDS011;4187;42.778;23.242;2023-02-28T06:09:04;37.87;;;24.67;;
8297;SDS011;4187;42.778;23.242;2023-02-28T06:11:31;30.03;;;21.50;;
8297;SDS011;4187;42.778;23.242;2023-02-28T06:13:58;26.77;;;20.47;;
8297;SDS011;4187;42.778;23.242;2023-02-28T06:16:26;31.17;;;24.47;;
8297;SDS011;4187;42.778;23.242;2023-02-28T06:18:53;31.13;;;22.10;;
8297;SDS011;4187;42.778;23.242;2023-02-28T06:21:21;32.50;;;24.53;;
8297;SDS011;4187;42.778;23.242;2023-02-28T06:23:49;27.67;;;21.23;;
8297;SDS011;4187;42.778;23.242;2023-02-28T06:26:17;21.87;;;17.53;;
8297;SDS011;4187;42.778;23.242;2023-02-28T06:28:44;24.63;;;18.53;;
8297;SDS011;4187;42.778;23.242;2023-02-28T06:31:11;23.77;;;17.50;;
8297;SDS011;4187;42.778;23.242;2023-02-28T06:33:40;26.50;;;19.40;;
8297;SDS011;4187;42.778;23.242;2023-02-28T06:36:07;24.80;;;17.47;;
8297;SDS011;4187;42.778;23.242;2023-02-28T06:38:35;25.40;;;18.97;;
8297;SDS011;4187;42.778;23.242;2023-02-28T06:41:03;26.33;;;19.43;;
8297;SDS011;4187;42.778;23.242;2023-02-28T06:43:32;29.43;;;21.43;;
8297;SDS011;4187;42.778;23.242;2023-02-28T06:46:03;27.43;;;19.40;;
8297;SDS011;4187;42.778;23.242;2023-02-28T06:48:33;27.20;;;18.33;;
8297;SDS011;4187;42.778;23.242;2023-02-28T06:51:01;24.83;;;18.50;;
8297;SDS011;4187;42.778;23.242;2023-02-28T06:53:29;25.50;;;18.00;;
8297;SDS011;4187;42.778;23.242;2023-02-28T06:55:56;20.80;;;16.60;;
8297;SDS011;4187;42.778;23.242;2023-02-28T06:58:23;18.87;;;15.63;;
8297;SDS011;4187;42.778;23.242;2023-02-28T07:00:51;20.23;;;16.50;;
8297;SDS011;4187;42.778;23.242;2023-02-28T07:03:19;18.60;;;14.83;;
8297;SDS011;4187;42.778;23.242;2023-02-28T07:05:46;24.40;;;20.70;;
8297;SDS011;4187;42.778;23.242;2023-02-28T07:08:13;22.33;;;17.27;;
8297;SDS011;4187;42.778;23.242;2023-02-28T07:10:39;18.13;;;16.17;;
8297;SDS011;4187;42.778;23.242;2023-02-28T07:13:07;18.90;;;14.03;;
8297;SDS011;4187;42.778;23.242;2023-02-28T07:15:35;18.37;;;15.10;;
8297;SDS011;4187;42.778;23.242;2023-02-28T07:18:03;27.23;;;20.50;;
8297;SDS011;4187;42.778;23.242;2023-02-28T07:20:30;23.03;;;18.07;;
8297;SDS011;4187;42.778;23.242;2023-02-28T07:22:57;20.40;;;16.93;;
8297;SDS011;4187;42.778;23.242;2023-02-28T07:25:24;17.87;;;15.80;;
8297;SDS011;4187;42.778;23.242;2023-02-28T07:27:53;20.37;;;16.80;;
8297;SDS011;4187;42.778;23.242;2023-02-28T07:30:20;23.83;;;18.70;;
8297;SDS011;4187;42.778;23.242;2023-02-28T07:32:47;23.40;;;19.77;;
8297;SDS011;4187;42.778;23.242;2023-02-28T07:35:15;25.27;;;20.63;;
8297;SDS011;4187;42.778;23.242;2023-02-28T07:37:42;17.60;;;13.63;;
8297;SDS011;4187;42.778;23.242;2023-02-28T07:40:10;17.43;;;13.77;;
8297;SDS011;4187;42.778;23.242;2023-02-28T07:42:38;43.23;;;24.80;;
8297;SDS011;4187;42.778;23.242;2023-02-28T07:45:06;18.80;;;14.73;;
8297;SDS011;4187;42.778;23.242;2023-02-28T07:47:36;32.33;;;26.80;;
8297;SDS011;4187;42.778;23.242;2023-02-28T07:50:03;24.63;;;20.23;;
8297;SDS011;4187;42.778;23.242;2023-02-28T07:52:32;32.90;;;27.27;;
8297;SDS011;4187;42.778;23.242;2023-02-28T07:54:59;30.00;;;26.57;;
8297;SDS011;4187;42.778;23.242;2023-02-28T07:57:26;24.53;;;21.77;;
8297;SDS011;4187;42.778;23.242;2023-02-28T07:59:52;26.70;;;20.67;;
8297;SDS011;4187;42.778;23.242;2023-02-28T08:02:19;26.63;;;19.50;;
8297;SDS011;4187;42.778;23.242;2023-02-28T08:04:46;24.87;;;16.50;;
8297;SDS011;4187;42.778;23.242;2023-02-28T08:07:14;21.63;;;15.43;;
8297;SDS011;4187;42.778;23.242;2023-02-28T08:09:43;21.67;;;15.77;;
8297;SDS011;4187;42.778;23.242;2023-02-28T08:12:10;20.63;;;15.23;;
8297;SDS011;4187;42.778;23.242;2023-02-28T08:14:38;27.03;;;20.97;;
8297;SDS011;4187;42.778;23.242;2023-02-28T08:17:06;23.57;;;18.93;;
8297;SDS011;4187;42.778;23.242;2023-02-28T08:19:33;25.02;;;18.13;;
8297;SDS011;4187;42.778;23.242;2023-02-28T08:22:00;32.10;;;22.27;;
8297;SDS011;4187;42.778;23.242;2023-02-28T08:24:27;45.20;;;26.27;;
8297;SDS011;4187;42.778;23.242;2023-02-28T08:26:55;32.92;;;21.63;;
8297;SDS011;4187;42.778;23.242;2023-02-28T08:29:22;33.50;;;23.60;;
8297;SDS011;4187;42.778;23.242;2023-02-28T08:31:49;33.13;;;21.00;;
8297;SDS011;4187;42.778;23.242;2023-02-28T08:34:16;29.83;;;22.30;;
8297;SDS011;4187;42.778;23.242;2023-02-28T08:36:43;39.92;;;25.70;;
8297;SDS011;4187;42.778;23.242;2023-02-28T08:39:11;30.93;;;21.20;;
8297;SDS011;4187;42.778;23.242;2023-02-28T08:41:38;31.50;;;21.80;;
8297;SDS011;4187;42.778;23.242;2023-02-28T08:44:07;22.33;;;16.70;;
8297;SDS011;4187;42.778;23.242;2023-02-28T08:46:34;24.63;;;16.95;;
8297;SDS011;4187;42.778;23.242;2023-02-28T08:49:01;23.50;;;16.75;;
8297;SDS011;4187;42.778;23.242;2023-02-28T08:51:28;19.75;;;14.70;;
8297;SDS011;4187;42.778;23.242;2023-02-28T08:53:57;24.48;;;18.30;;
8297;SDS011;4187;42.778;23.242;2023-02-28T08:56:25;37.33;;;22.70;;
8297;SDS011;4187;42.778;23.242;2023-02-28T08:58:53;36.40;;;23.50;;
8297;SDS011;4187;42.778;23.242;2023-02-28T09:01:23;23.27;;;17.85;;
8297;SDS011;4187;42.778;23.242;2023-02-28T09:03:52;28.45;;;18.85;;
8297;SDS011;4187;42.778;23.242;2023-02-28T09:06:20;22.67;;;18.00;;
8297;SDS011;4187;42.778;23.242;2023-02-28T09:08:49;33.40;;;18.13;;
8297;SDS011;4187;42.778;23.242;2023-02-28T09:11:16;27.23;;;17.48;;
8297;SDS011;4187;42.778;23.242;2023-02-28T09:13:44;30.25;;;19.17;;
8297;SDS011;4187;42.778;23.242;2023-02-28T09:16:12;25.58;;;20.45;;
8297;SDS011;4187;42.778;23.242;2023-02-28T09:18:42;25.77;;;19.48;;
8297;SDS011;4187;42.778;23.242;2023-02-28T09:21:11;26.23;;;19.65;;
8297;SDS011;4187;42.778;23.242;2023-02-28T09:23:39;37.17;;;27.88;;
8297;SDS011;4187;42.778;23.242;2023-02-28T09:26:07;29.02;;;21.30;;
8297;SDS011;4187;42.778;23.242;2023-02-28T09:28:34;33.65;;;22.85;;
8297;SDS011;4187;42.778;23.242;2023-02-28T09:31:01;31.83;;;21.27;;
8297;SDS011;4187;42.778;23.242;2023-02-28T09:33:30;28.88;;;22.15;;
8297;SDS011;4187;42.778;23.242;2023-02-28T09:35:59;27.52;;;21.80;;
8297;SDS011;4187;42.778;23.242;2023-02-28T09:38:27;27.23;;;19.38;;
8297;SDS011;4187;42.778;23.242;2023-02-28T09:40:55;24.80;;;19.42;;
8297;SDS011;4187;42.778;23.242;2023-02-28T09:43:25;27.35;;;19.35;;
8297;SDS011;4187;42.778;23.242;2023-02-28T09:45:56;28.02;;;20.10;;
8297;SDS011;4187;42.778;23.242;2023-02-28T09:48:29;29.58;;;19.58;;
8297;SDS011;4187;42.778;23.242;2023-02-28T09:51:04;28.35;;;20.83;;
8297;SDS011;4187;42.778;23.242;2023-02-28T09:53:36;27.95;;;18.55;;
8297;SDS011;4187;42.778;23.242;2023-02-28T09:56:07;28.33;;;19.38;;
8297;SDS011;4187;42.778;23.242;2023-02-28T09:58:37;28.75;;;19.15;;
8297;SDS011;4187;42.778;23.242;2023-02-28T10:01:09;26.60;;;20.25;;
8297;SDS011;4187;42.778;23.242;2023-02-28T10:03:46;27.38;;;19.67;;
8297;SDS011;4187;42.778;23.242;2023-02-28T10:06:19;27.23;;;19.75;;
8297;SDS011;4187;42.778;23.242;2023-02-28T10:08:50;22.88;;;17.50;;
8297;SDS011;4187;42.778;23.242;2023-02-28T10:11:22;28.85;;;18.98;;
8297;SDS011;4187;42.778;23.242;2023-02-28T10:13:52;23.58;;;17.17;;
8297;SDS011;4187;42.778;23.242;2023-02-28T10:16:27;21.35;;;16.58;;
8297;SDS011;4187;42.778;23.242;2023-02-28T10:18:59;24.42;;;16.10;;
8297;SDS011;4187;42.778;23.242;2023-02-28T10:21:34;17.88;;;14.15;;
8297;SDS011;4187;42.778;23.242;2023-02-28T10:27:13;17.65;;;12.90;;
8297;SDS011;4187;42.778;23.242;2023-02-28T10:29:42;22.20;;;15.38;;
8297;SDS011;4187;42.778;23.242;2023-02-28T10:32:11;15.73;;;11.60;;
8297;SDS011;4187;42.778;23.242;2023-02-28T10:34:45;16.30;;;12.25;;
8297;SDS011;4187;42.778;23.242;2023-02-28T10:37:18;18.33;;;12.93;;
8297;SDS011;4187;42.778;23.242;2023-02-28T10:39:46;18.55;;;13.10;;
8297;SDS011;4187;42.778;23.242;2023-02-28T10:42:23;23.23;;;14.50;;
8297;SDS011;4187;42.778;23.242;2023-02-28T10:47:48;23.33;;;12.80;;
8297;SDS011;4187;42.778;23.242;2023-02-28T10:53:16;18.70;;;11.32;;
8297;SDS011;4187;42.778;23.242;2023-02-28T10:55:55;24.83;;;11.75;;
8297;SDS011;4187;42.778;23.242;2023-02-28T10:58:24;14.77;;;10.75;;
8297;SDS011;4187;42.778;23.242;2023-02-28T11:00:53;19.10;;;12.23;;
8297;SDS011;4187;42.778;23.242;2023-02-28T11:03:25;18.55;;;12.55;;
8297;SDS011;4187;42.778;23.242;2023-02-28T11:05:56;16.13;;;11.52;;
8297;SDS011;4187;42.778;23.242;2023-02-28T11:08:25;15.85;;;11.50;;
8297;SDS011;4187;42.778;23.242;2023-02-28T11:10:56;22.05;;;13.15;;
8297;SDS011;4187;42.778;23.242;2023-02-28T11:13:26;16.77;;;10.90;;
8297;SDS011;4187;42.778;23.242;2023-02-28T11:15:57;18.65;;;13.05;;
8297;SDS011;4187;42.778;23.242;2023-02-28T11:18:27;18.27;;;11.55;;
8297;SDS011;4187;42.778;23.242;2023-02-28T11:20:56;23.42;;;11.80;;
8297;SDS011;4187;42.778;23.242;2023-02-28T11:23:28;26.52;;;11.38;;
8297;SDS011;4187;42.778;23.242;2023-02-28T11:25:59;19.25;;;11.63;;
8297;SDS011;4187;42.778;23.242;2023-02-28T11:28:30;19.27;;;12.88;;
8297;SDS011;4187;42.778;23.242;2023-02-28T11:31:02;21.02;;;12.45;;
8297;SDS011;4187;42.778;23.242;2023-02-28T11:33:31;20.98;;;11.45;;
8297;SDS011;4187;42.778;23.242;2023-02-28T11:36:09;23.75;;;11.85;;
8297;SDS011;4187;42.778;23.242;2023-02-28T11:38:40;23.20;;;12.55;;
8297;SDS011;4187;42.778;23.242;2023-02-28T11:41:15;25.75;;;12.82;;
8297;SDS011;4187;42.778;23.242;2023-02-28T11:44:04;21.02;;;11.63;;
8297;SDS011;4187;42.778;23.242;2023-02-28T11:46:43;25.17;;;12.77;;
8297;SDS011;4187;42.778;23.242;2023-02-28T11:49:21;24.33;;;13.30;;
8297;SDS011;4187;42.778;23.242;2023-02-28T11:51:58;21.30;;;12.90;;
8297;SDS011;4187;42.778;23.242;2023-02-28T11:57:30;18.30;;;11.50;;
8297;SDS011;4187;42.778;23.242;2023-02-28T12:00:07;26.42;;;12.38;;
8297;SDS011;4187;42.778;23.242;2023-02-28T12:02:51;23.20;;;13.15;;
8297;SDS011;4187;42.778;23.242;2023-02-28T12:05:31;20.65;;;11.63;;
8297;SDS011;4187;42.778;23.242;2023-02-28T12:08:09;26.88;;;13.57;;
8297;SDS011;4187;42.778;23.242;2023-02-28T12:10:53;21.17;;;12.75;;
8297;SDS011;4187;42.778;23.242;2023-02-28T12:13:29;17.30;;;12.30;;
8297;SDS011;4187;42.778;23.242;2023-02-28T12:16:12;17.10;;;12.00;;
8297;SDS011;4187;42.778;23.242;2023-02-28T12:18:59;26.45;;;13.20;;
8297;SDS011;4187;42.778;23.242;2023-02-28T12:21:36;19.42;;;13.32;;
8297;SDS011;4187;42.778;23.242;2023-02-28T12:24:27;24.15;;;12.40;;
8297;SDS011;4187;42.778;23.242;2023-02-28T12:27:07;18.40;;;12.45;;
8297;SDS011;4187;42.778;23.242;2023-02-28T12:29:41;21.73;;;11.90;;
8297;SDS011;4187;42.778;23.242;2023-02-28T12:32:15;19.23;;;12.32;;
8297;SDS011;4187;42.778;23.242;2023-02-28T12:34:47;25.63;;;13.10;;
8297;SDS011;4187;42.778;23.242;2023-02-28T12:37:21;16.42;;;11.43;;
8297;SDS011;4187;42.778;23.242;2023-02-28T12:39:54;24.25;;;12.38;;
8297;SDS011;4187;42.778;23.242;2023-02-28T12:42:30;15.35;;;11.52;;
8297;SDS011;4187;42.778;23.242;2023-02-28T12:45:00;19.17;;;12.27;;
8297;SDS011;4187;42.778;23.242;2023-02-28T12:47:32;20.83;;;13.45;;
8297;SDS011;4187;42.778;23.242;2023-02-28T12:49:59;18.55;;;11.80;;
8297;SDS011;4187;42.778;23.242;2023-02-28T12:52:31;21.45;;;13.82;;
8297;SDS011;4187;42.778;23.242;2023-02-28T12:55:04;19.48;;;14.95;;
8297;SDS011;4187;42.778;23.242;2023-02-28T12:57:41;25.70;;;15.43;;
8297;SDS011;4187;42.778;23.242;2023-02-28T13:00:14;16.42;;;11.80;;
8297;SDS011;4187;42.778;23.242;2023-02-28T13:06:01;18.17;;;11.65;;
8297;SDS011;4187;42.778;23.242;2023-02-28T13:11:31;22.13;;;14.10;;
8297;SDS011;4187;42.778;23.242;2023-02-28T13:14:02;19.80;;;11.30;;
8297;SDS011;4187;42.778;23.242;2023-02-28T13:16:53;17.02;;;12.70;;
8297;SDS011;4187;42.778;23.242;2023-02-28T13:19:23;17.45;;;11.20;;
8297;SDS011;4187;42.778;23.242;2023-02-28T13:21:51;21.95;;;11.25;;
8297;SDS011;4187;42.778;23.242;2023-02-28T13:30:49;20.02;;;11.93;;
8297;SDS011;4187;42.778;23.242;2023-02-28T13:33:22;15.93;;;11.27;;
8297;SDS011;4187;42.778;23.242;2023-02-28T13:36:00;16.95;;;12.02;;
8297;SDS011;4187;42.778;23.242;2023-02-28T13:38:38;23.88;;;11.98;;
8297;SDS011;4187;42.778;23.242;2023-02-28T13:44:07;21.63;;;11.23;;
8297;SDS011;4187;42.778;23.242;2023-02-28T13:47:13;19.63;;;11.07;;
8297;SDS011;4187;42.778;23.242;2023-02-28T13:49:42;16.52;;;11.32;;
8297;SDS011;4187;42.778;23.242;2023-02-28T13:52:11;21.40;;;12.40;;
8297;SDS011;4187;42.778;23.242;2023-02-28T13:54:48;23.15;;;11.75;;
8297;SDS011;4187;42.778;23.242;2023-02-28T13:57:42;18.63;;;11.07;;
8297;SDS011;4187;42.778;23.242;2023-02-28T14:00:22;19.10;;;10.52;;
8297;SDS011;4187;42.778;23.242;2023-02-28T14:03:14;23.90;;;14.07;;
8297;SDS011;4187;42.778;23.242;2023-02-28T14:06:09;19.52;;;12.80;;
8297;SDS011;4187;42.778;23.242;2023-02-28T14:08:51;17.08;;;12.23;;
8297;SDS011;4187;42.778;23.242;2023-02-28T14:11:26;19.48;;;12.45;;
8297;SDS011;4187;42.778;23.242;2023-02-28T14:13:56;18.70;;;13.68;;
8297;SDS011;4187;42.778;23.242;2023-02-28T14:16:24;22.65;;;14.70;;
8297;SDS011;4187;42.778;23.242;2023-02-28T14:18:57;21.33;;;14.25;;
8297;SDS011;4187;42.778;23.242;2023-02-28T14:21:27;19.27;;;14.63;;
8297;SDS011;4187;42.778;23.242;2023-02-28T14:27:03;22.38;;;14.70;;
8297;SDS011;4187;42.778;23.242;2023-02-28T14:29:52;21.80;;;13.93;;
8297;SDS011;4187;42.778;23.242;2023-02-28T14:32:32;24.17;;;16.63;;
8297;SDS011;4187;42.778;23.242;2023-02-28T14:35:10;34.50;;;23.30;;
8297;SDS011;4187;42.778;23.242;2023-02-28T14:37:45;35.70;;;19.58;;
8297;SDS011;4187;42.778;23.242;2023-02-28T14:40:15;19.67;;;16.10;;
8297;SDS011;4187;42.778;23.242;2023-02-28T14:42:46;21.17;;;13.85;;
8297;SDS011;4187;42.778;23.242;2023-02-28T14:45:18;29.35;;;18.38;;
8297;SDS011;4187;42.778;23.242;2023-02-28T14:47:45;22.67;;;13.48;;
8297;SDS011;4187;42.778;23.242;2023-02-28T14:50:24;22.30;;;16.00;;
8297;SDS011;4187;42.778;23.242;2023-02-28T14:52:55;12.80;;;10.70;;
8297;SDS011;4187;42.778;23.242;2023-02-28T14:55:24;13.23;;;10.48;;
8297;SDS011;4187;42.778;23.242;2023-02-28T14:57:54;12.25;;;9.48;;
8297;SDS011;4187;42.778;23.242;2023-02-28T15:00:23;13.20;;;10.15;;
8297;SDS011;4187;42.778;23.242;2023-02-28T15:02:51;14.55;;;9.38;;
8297;SDS011;4187;42.778;23.242;2023-02-28T15:05:25;15.75;;;8.77;;
8297;SDS011;4187;42.778;23.242;2023-02-28T15:08:04;12.75;;;7.97;;
8297;SDS011;4187;42.778;23.242;2023-02-28T15:10:38;13.95;;;10.30;;
8297;SDS011;4187;42.778;23.242;2023-02-28T15:13:10;12.85;;;8.73;;
8297;SDS011;4187;42.778;23.242;2023-02-28T15:15:41;11.43;;;7.65;;
8297;SDS011;4187;42.778;23.242;2023-02-28T15:18:13;17.75;;;9.82;;
8297;SDS011;4187;42.778;23.242;2023-02-28T15:20:49;18.65;;;10.85;;
8297;SDS011;4187;42.778;23.242;2023-02-28T15:23:17;28.75;;;18.73;;
8297;SDS011;4187;42.778;23.242;2023-02-28T15:25:46;20.70;;;13.35;;
8297;SDS011;4187;42.778;23.242;2023-02-28T15:28:14;19.90;;;11.38;;